Zaandam — PDAN — position and weather

sailwx.info

Track history (hours):
 
Tides and Currents Weather Stations Pressure Air Temp Water Temp Dewpoint Dewpoint Depression Visibility Wind Speed Wind Dir Waves Ship Positions

Zaandam

Operator: Holland America Line

Last reported at 2015-Jul-29 19:00 UTC. Time now 2015-Jul-30 16:11 UTC.
Position N 58°18' W 134°24'.

Type: Ship. MMSI: 246442000.

Wind from 140 at 8 knots

Barometer 1021.0 mb
Air temperature 12.0 ° C
Visibility: greater than 2.2 NM
Dewpoint 11.0 ° C
Water temperature 9.9 ° C

Date/timePositionNaut miles runAvg speedWind from/ knotsBaromVisibWave heightAir tempDewpointWater temp
2015-Jul-29 19:00N 58°18' W 134°24'11 4.0 140 / 81021.0 2.2 12.011.0 9.9
2015-Jul-29 16:15N 58°10' W 134°10'295 7.7
2015-Jul-28 02:00N 53°48' W 130°06'17413.8 130 / 191020.0 5.4 14.212.012.0
2015-Jul-27 13:23N 51°09' W 128°09'1518.7
2015-Jul-27 12:33N 51°00' W 127°49'1919.2
2015-Jul-27 11:33N 50°49' W 127°24'1919.0
2015-Jul-27 10:33N 50°42' W 126°56'1817.5
2015-Jul-27 09:31N 50°30' W 126°34'4318.1
2015-Jul-27 07:09N 50°21' W 125°28'915.5
2015-Jul-27 06:33N 50°12' W 125°22'1413.7
2015-Jul-27 05:32N 49°60' W 125°12'1818.0
2015-Jul-27 04:32N 49°48' W 124°52'1919.6
2015-Jul-27 03:33N 49°36' W 124°28'1919.3
2015-Jul-27 02:33N 49°26' W 124°02'2019.5
2015-Jul-27 01:33N 49°21' W 123°33'1717.0
2015-Jul-27 00:33N 49°19' W 123°08'1 1.3
2015-Jul-26 23:32N 49°17' W 123°07'0 0.0
2015-Jul-26 22:31N 49°17' W 123°07'0 0.0
2015-Jul-26 21:32N 49°17' W 123°07'0 0.0
2015-Jul-26 20:33N 49°17' W 123°07'0 0.0
2015-Jul-26 19:33N 49°17' W 123°07'0 0.0
2015-Jul-26 18:33N 49°17' W 123°07'0 0.0
2015-Jul-26 17:33N 49°17' W 123°07'0 0.0
2015-Jul-26 16:33N 49°17' W 123°07'0 0.0
2015-Jul-26 15:33N 49°17' W 123°07'0 0.0
2015-Jul-26 14:33N 49°17' W 123°07'1 1.2
2015-Jul-26 13:34N 49°18' W 123°07'1313.1
2015-Jul-26 12:33N 49°18' W 123°27'1515.4
2015-Jul-26 11:33N 49°20' W 123°51'1615.6
2015-Jul-26 10:34N 49°24' W 124°14'1515.4
2015-Jul-26 09:34N 49°33' W 124°34'1615.6
2015-Jul-26 08:34N 49°44' W 124°50'1515.3
2015-Jul-26 07:34N 49°55' W 125°06'1414.1
2015-Jul-26 06:32N 50°07' W 125°20'5713.4
2015-Jul-26 02:16N 50°32' W 126°40'1216.3
2015-Jul-26 01:33N 50°41' W 126°52'1817.9
2015-Jul-26 00:33N 50°51' W 127°15'1717.4
2015-Jul-25 23:33N 51°02' W 127°37'1616.4
2015-Jul-25 22:33N 51°15' W 127°53'1717.1
2015-Jul-25 21:33N 51°32' W 127°52'44710.7
2015-Jul-24 03:33N 58°05' W 134°05'61 2.9
2015-Jul-23 07:00N 58°54' W 135°12'44 1.8 180 / 311009.0 2.2 0.514.411.413.2
2015-Jul-22 06:24N 58°10' W 135°20'3 6.6
2015-Jul-22 06:00N 58°12' W 135°24'715.4 340 / 151010.0 5.4 0.514.110.913.2
2015-Jul-22 05:32N 58°15' W 135°36'1212.1
2015-Jul-22 04:33N 58°20' W 135°57'1212.3
2015-Jul-22 03:33N 58°32' W 136°03'1111.5
2015-Jul-22 02:34N 58°43' W 136°08'1515.0
2015-Jul-22 01:33N 58°50' W 136°33'14 2.3
2015-Jul-21 19:33N 58°42' W 136°12'1413.7
2015-Jul-21 18:33N 58°29' W 136°03'9 9.4
2015-Jul-21 17:33N 58°20' W 136°05'41911.4
2015-Jul-20 05:00N 60°00' W 149°18'   360 / 151019.010.8 22.812.714.8
Track history (hours):
 
Tides and Currents Weather Stations Pressure Air Temp Water Temp Dewpoint Dewpoint Depression Visibility Wind Speed Wind Dir Waves Ship Positions

Zaandam

Operator: Holland America Line

Last reported at 2015-Jul-29 19:00 UTC. Time now 2015-Jul-30 16:11 UTC.
Position N 58°18' W 134°24'.

Type: Ship. MMSI: 246442000.

Wind from 140 at 8 knots

Barometer 1021.0 mb
Air temperature 12.0 ° C
Visibility: greater than 2.2 NM
Dewpoint 11.0 ° C
Water temperature 9.9 ° C

Date/timePositionNaut miles runAvg speedWind from/ knotsBaromVisibWave heightAir tempDewpointWater temp
2015-Jul-29 19:00N 58°18' W 134°24'11 4.0 140 / 81021.0 2.2 12.011.0 9.9
2015-Jul-29 16:15N 58°10' W 134°10'295 7.7
2015-Jul-28 02:00N 53°48' W 130°06'17413.8 130 / 191020.0 5.4 14.212.012.0
2015-Jul-27 13:23N 51°09' W 128°09'1518.7
2015-Jul-27 12:33N 51°00' W 127°49'1919.2
2015-Jul-27 11:33N 50°49' W 127°24'1919.0
2015-Jul-27 10:33N 50°42' W 126°56'1817.5
2015-Jul-27 09:31N 50°30' W 126°34'4318.1
2015-Jul-27 07:09N 50°21' W 125°28'915.5
2015-Jul-27 06:33N 50°12' W 125°22'1413.7
2015-Jul-27 05:32N 49°60' W 125°12'1818.0
2015-Jul-27 04:32N 49°48' W 124°52'1919.6
2015-Jul-27 03:33N 49°36' W 124°28'1919.3
2015-Jul-27 02:33N 49°26' W 124°02'2019.5
2015-Jul-27 01:33N 49°21' W 123°33'1717.0
2015-Jul-27 00:33N 49°19' W 123°08'1 1.3
2015-Jul-26 23:32N 49°17' W 123°07'0 0.0
2015-Jul-26 22:31N 49°17' W 123°07'0 0.0
2015-Jul-26 21:32N 49°17' W 123°07'0 0.0
2015-Jul-26 20:33N 49°17' W 123°07'0 0.0
2015-Jul-26 19:33N 49°17' W 123°07'0 0.0
2015-Jul-26 18:33N 49°17' W 123°07'0 0.0
2015-Jul-26 17:33N 49°17' W 123°07'0 0.0
2015-Jul-26 16:33N 49°17' W 123°07'0 0.0
2015-Jul-26 15:33N 49°17' W 123°07'0 0.0
2015-Jul-26 14:33N 49°17' W 123°07'1 1.2
2015-Jul-26 13:34N 49°18' W 123°07'1313.1
2015-Jul-26 12:33N 49°18' W 123°27'1515.4
2015-Jul-26 11:33N 49°20' W 123°51'1615.6
2015-Jul-26 10:34N 49°24' W 124°14'1515.4
2015-Jul-26 09:34N 49°33' W 124°34'1615.6
2015-Jul-26 08:34N 49°44' W 124°50'1515.3
2015-Jul-26 07:34N 49°55' W 125°06'1414.1
2015-Jul-26 06:32N 50°07' W 125°20'5713.4
2015-Jul-26 02:16N 50°32' W 126°40'1216.3
2015-Jul-26 01:33N 50°41' W 126°52'1817.9
2015-Jul-26 00:33N 50°51' W 127°15'1717.4
2015-Jul-25 23:33N 51°02' W 127°37'1616.4
2015-Jul-25 22:33N 51°15' W 127°53'1717.1
2015-Jul-25 21:33N 51°32' W 127°52'44710.7
2015-Jul-24 03:33N 58°05' W 134°05'61 2.9
2015-Jul-23 07:00N 58°54' W 135°12'44 1.8 180 / 311009.0 2.2 0.514.411.413.2
2015-Jul-22 06:24N 58°10' W 135°20'3 6.6
2015-Jul-22 06:00N 58°12' W 135°24'715.4 340 / 151010.0 5.4 0.514.110.913.2
2015-Jul-22 05:32N 58°15' W 135°36'1212.1
2015-Jul-22 04:33N 58°20' W 135°57'1212.3
2015-Jul-22 03:33N 58°32' W 136°03'1111.5
2015-Jul-22 02:34N 58°43' W 136°08'1515.0
2015-Jul-22 01:33N 58°50' W 136°33'14 2.3
2015-Jul-21 19:33N 58°42' W 136°12'1413.7
2015-Jul-21 18:33N 58°29' W 136°03'9 9.4
2015-Jul-21 17:33N 58°20' W 136°05'41911.4
2015-Jul-20 05:00N 60°00' W 149°18'   360 / 151019.010.8 22.812.714.8

Dump ship's entire track history